sensor_id;sensor_type;location;lat;lon;timestamp;pressure;altitude;pressure_sealevel;temperature;humidity
77250;BME280;66287;42.658;27.568;2023-02-22T00:00:57;99872.59;;;15.93;36.86
77250;BME280;66287;42.658;27.568;2023-02-22T00:03:27;99882.72;;;15.93;37.21
77250;BME280;66287;42.658;27.568;2023-02-22T00:05:56;99877.13;;;15.88;37.04
77250;BME280;66287;42.658;27.568;2023-02-22T00:08:27;99872.16;;;15.84;37.43
77250;BME280;66287;42.658;27.568;2023-02-22T00:11:00;99875.63;;;15.80;37.38
77250;BME280;66287;42.658;27.568;2023-02-22T00:13:26;99875.56;;;15.75;37.00
77250;BME280;66287;42.658;27.568;2023-02-22T00:15:53;99872.72;;;15.70;37.07
77250;BME280;66287;42.658;27.568;2023-02-22T00:18:19;99880.56;;;15.66;37.78
77250;BME280;66287;42.658;27.568;2023-02-22T00:20:44;99881.28;;;15.62;37.77
77250;BME280;66287;42.658;27.568;2023-02-22T00:23:14;99884.78;;;15.57;38.02
77250;BME280;66287;42.658;27.568;2023-02-22T00:25:40;99879.41;;;15.50;38.29
77250;BME280;66287;42.658;27.568;2023-02-22T00:28:05;99881.78;;;15.47;38.83
77250;BME280;66287;42.658;27.568;2023-02-22T00:30:33;99868.03;;;15.42;38.82
77250;BME280;66287;42.658;27.568;2023-02-22T00:32:59;99870.16;;;15.40;38.56
77250;BME280;66287;42.658;27.568;2023-02-22T00:35:25;99869.03;;;15.36;38.80
77250;BME280;66287;42.658;27.568;2023-02-22T00:37:51;99868.44;;;15.34;38.72
77250;BME280;66287;42.658;27.568;2023-02-22T00:40:18;99860.47;;;15.32;39.18
77250;BME280;66287;42.658;27.568;2023-02-22T00:42:45;99861.78;;;15.30;39.01
77250;BME280;66287;42.658;27.568;2023-02-22T00:45:12;99866.06;;;15.26;39.04
77250;BME280;66287;42.658;27.568;2023-02-22T00:47:37;99859.19;;;15.23;38.95
77250;BME280;66287;42.658;27.568;2023-02-22T00:50:03;99862.97;;;15.22;39.23
77250;BME280;66287;42.658;27.568;2023-02-22T00:52:28;99864.56;;;15.18;39.52
77250;BME280;66287;42.658;27.568;2023-02-22T00:54:54;99864.22;;;15.14;39.44
77250;BME280;66287;42.658;27.568;2023-02-22T00:57:20;99862.53;;;15.13;39.45
77250;BME280;66287;42.658;27.568;2023-02-22T00:59:45;99865.75;;;15.10;40.07
77250;BME280;66287;42.658;27.568;2023-02-22T01:02:11;99857.44;;;15.05;39.97
77250;BME280;66287;42.658;27.568;2023-02-22T01:04:38;99860.88;;;15.01;40.09
77250;BME280;66287;42.658;27.568;2023-02-22T01:07:04;99862.56;;;15.02;40.44
77250;BME280;66287;42.658;27.568;2023-02-22T01:09:29;99860.88;;;15.01;40.14
77250;BME280;66287;42.658;27.568;2023-02-22T01:11:55;99860.81;;;14.96;40.71
77250;BME280;66287;42.658;27.568;2023-02-22T01:14:22;99860.81;;;14.96;40.44
77250;BME280;66287;42.658;27.568;2023-02-22T01:16:51;99869.00;;;14.96;40.80
77250;BME280;66287;42.658;27.568;2023-02-22T01:19:16;99869.47;;;14.93;40.54
77250;BME280;66287;42.658;27.568;2023-02-22T01:21:42;99856.06;;;14.91;40.92
77250;BME280;66287;42.658;27.568;2023-02-22T01:24:07;99864.94;;;14.87;41.06
77250;BME280;66287;42.658;27.568;2023-02-22T01:26:33;99861.28;;;14.81;41.46
77250;BME280;66287;42.658;27.568;2023-02-22T01:28:58;99864.25;;;14.79;41.39
77250;BME280;66287;42.658;27.568;2023-02-22T01:31:24;99857.38;;;14.77;41.13
77250;BME280;66287;42.658;27.568;2023-02-22T01:33:49;99859.28;;;14.76;41.50
77250;BME280;66287;42.658;27.568;2023-02-22T01:36:15;99861.41;;;14.74;41.44
77250;BME280;66287;42.658;27.568;2023-02-22T01:38:41;99857.50;;;14.70;41.29
77250;BME280;66287;42.658;27.568;2023-02-22T01:41:07;99850.97;;;14.71;41.85
77250;BME280;66287;42.658;27.568;2023-02-22T01:43:32;99847.66;;;14.69;42.02
77250;BME280;66287;42.658;27.568;2023-02-22T01:45:59;99847.31;;;14.66;42.09
77250;BME280;66287;42.658;27.568;2023-02-22T01:48:33;99850.72;;;14.61;41.82
77250;BME280;66287;42.658;27.568;2023-02-22T01:51:07;99849.91;;;14.61;41.90
77250;BME280;66287;42.658;27.568;2023-02-22T01:56:19;99848.50;;;14.58;41.99
77250;BME280;66287;42.658;27.568;2023-02-22T01:58:46;99846.84;;;14.57;41.95
77250;BME280;66287;42.658;27.568;2023-02-22T02:01:13;99847.91;;;14.56;42.48
77250;BME280;66287;42.658;27.568;2023-02-22T02:03:39;99843.75;;;14.54;42.23
77250;BME280;66287;42.658;27.568;2023-02-22T02:06:06;99853.84;;;14.53;42.23
77250;BME280;66287;42.658;27.568;2023-02-22T02:08:37;99846.72;;;14.52;42.78
77250;BME280;66287;42.658;27.568;2023-02-22T02:11:08;99847.19;;;14.49;42.41
77250;BME280;66287;42.658;27.568;2023-02-22T02:13:33;99847.66;;;14.46;42.54
77250;BME280;66287;42.658;27.568;2023-02-22T02:15:59;99847.31;;;14.42;42.75
77250;BME280;66287;42.658;27.568;2023-02-22T02:18:25;99853.19;;;14.39;42.57
77250;BME280;66287;42.658;27.568;2023-02-22T02:39:43;99867.66;;;14.28;43.13
77250;BME280;66287;42.658;27.568;2023-02-22T02:42:15;99855.91;;;14.28;43.29
77250;BME280;66287;42.658;27.568;2023-02-22T02:44:56;99857.59;;;14.29;43.59
77250;BME280;66287;42.658;27.568;2023-02-22T02:47:26;99863.50;;;14.26;43.66
77250;BME280;66287;42.658;27.568;2023-02-22T02:52:22;99862.31;;;14.22;43.22
77250;BME280;66287;42.658;27.568;2023-02-22T02:54:48;99854.13;;;14.22;43.42
77250;BME280;66287;42.658;27.568;2023-02-22T02:57:14;99856.75;;;14.17;43.45
77250;BME280;66287;42.658;27.568;2023-02-22T02:59:41;99861.22;;;14.11;43.54
77250;BME280;66287;42.658;27.568;2023-02-22T03:02:19;99862.53;;;14.08;44.20
77250;BME280;66287;42.658;27.568;2023-02-22T03:10:17;99865.25;;;13.97;44.38
77250;BME280;66287;42.658;27.568;2023-02-22T03:20:49;99871.91;;;13.71;45.22
77250;BME280;66287;42.658;27.568;2023-02-22T03:25:52;99879.47;;;13.69;44.78
77250;BME280;66287;42.658;27.568;2023-02-22T03:28:20;99880.75;;;13.66;45.38
77250;BME280;66287;42.658;27.568;2023-02-22T03:30:54;99886.66;;;13.63;45.15
77250;BME280;66287;42.658;27.568;2023-02-22T03:35:55;99884.72;;;13.52;45.84
77250;BME280;66287;42.658;27.568;2023-02-22T03:38:21;99890.25;;;13.45;45.52
77250;BME280;66287;42.658;27.568;2023-02-22T03:40:48;99891.75;;;13.41;45.74
77250;BME280;66287;42.658;27.568;2023-02-22T03:43:17;99891.63;;;13.36;45.92
77250;BME280;66287;42.658;27.568;2023-02-22T03:45:46;99894.66;;;13.28;45.93
77250;BME280;66287;42.658;27.568;2023-02-22T03:50:47;99879.34;;;13.16;46.22
77250;BME280;66287;42.658;27.568;2023-02-22T03:53:13;99887.53;;;13.09;46.03
77250;BME280;66287;42.658;27.568;2023-02-22T03:55:39;99886.63;;;12.97;46.48
77250;BME280;66287;42.658;27.568;2023-02-22T03:58:06;99886.47;;;12.92;47.20
77250;BME280;66287;42.658;27.568;2023-02-22T04:00:33;99885.88;;;12.90;46.85
77250;BME280;66287;42.658;27.568;2023-02-22T04:02:59;99885.88;;;12.90;47.39
77250;BME280;66287;42.658;27.568;2023-02-22T04:05:24;99888.59;;;12.90;46.96
77250;BME280;66287;42.658;27.568;2023-02-22T04:07:51;99891.31;;;12.90;47.07
77250;BME280;66287;42.658;27.568;2023-02-22T04:10:16;99892.13;;;12.90;46.99
77250;BME280;66287;42.658;27.568;2023-02-22T04:12:42;99901.34;;;12.89;47.40
77250;BME280;66287;42.658;27.568;2023-02-22T04:15:10;99902.41;;;12.88;47.34
77250;BME280;66287;42.658;27.568;2023-02-22T04:17:36;99893.63;;;12.86;47.43
77250;BME280;66287;42.658;27.568;2023-02-22T04:20:02;99897.63;;;12.84;47.33
77250;BME280;66287;42.658;27.568;2023-02-22T04:22:39;99897.63;;;12.84;47.22
77250;BME280;66287;42.658;27.568;2023-02-22T04:25:05;99903.53;;;12.81;47.54
77250;BME280;66287;42.658;27.568;2023-02-22T04:27:31;99901.84;;;12.80;47.13
77250;BME280;66287;42.658;27.568;2023-02-22T04:29:56;99890.97;;;12.80;47.57
77250;BME280;66287;42.658;27.568;2023-02-22T04:32:22;99897.25;;;12.80;47.62
77250;BME280;66287;42.658;27.568;2023-02-22T04:34:48;99901.28;;;12.77;47.40
77250;BME280;66287;42.658;27.568;2023-02-22T04:37:13;99900.22;;;12.79;47.50
77250;BME280;66287;42.658;27.568;2023-02-22T04:39:38;99900.44;;;12.77;47.58
77250;BME280;66287;42.658;27.568;2023-02-22T04:42:04;99901.09;;;12.72;47.36
77250;BME280;66287;42.658;27.568;2023-02-22T04:44:30;99905.09;;;12.70;47.39
77250;BME280;66287;42.658;27.568;2023-02-22T04:46:56;99905.53;;;12.67;47.79
77250;BME280;66287;42.658;27.568;2023-02-22T04:49:22;99901.38;;;12.64;48.01
77250;BME280;66287;42.658;27.568;2023-02-22T04:51:49;99913.31;;;12.63;47.82
77250;BME280;66287;42.658;27.568;2023-02-22T04:54:16;99905.59;;;12.60;48.12
77250;BME280;66287;42.658;27.568;2023-02-22T04:56:45;99909.16;;;12.61;47.95
77250;BME280;66287;42.658;27.568;2023-02-22T04:59:10;99921.31;;;12.58;48.33
77250;BME280;66287;42.658;27.568;2023-02-22T05:01:37;99908.19;;;12.55;48.43
77250;BME280;66287;42.658;27.568;2023-02-22T05:04:06;99911.72;;;12.56;47.88
77250;BME280;66287;42.658;27.568;2023-02-22T05:06:31;99912.09;;;12.59;48.31
77250;BME280;66287;42.658;27.568;2023-02-22T05:08:57;99923.56;;;12.61;48.26
77250;BME280;66287;42.658;27.568;2023-02-22T05:11:22;99922.09;;;12.65;48.15
77250;BME280;66287;42.658;27.568;2023-02-22T05:13:48;99919.09;;;12.73;48.18
77250;BME280;66287;42.658;27.568;2023-02-22T05:16:13;99918.56;;;12.83;48.01
77250;BME280;66287;42.658;27.568;2023-02-22T05:18:39;99926.13;;;12.99;47.96
77250;BME280;66287;42.658;27.568;2023-02-22T05:21:04;99925.78;;;13.14;48.24
77250;BME280;66287;42.658;27.568;2023-02-22T05:23:32;99934.19;;;13.31;48.19
77250;BME280;66287;42.658;27.568;2023-02-22T05:25:58;99937.13;;;13.48;47.94
77250;BME280;66287;42.658;27.568;2023-02-22T05:28:23;99933.94;;;13.69;48.24
77250;BME280;66287;42.658;27.568;2023-02-22T05:30:49;99941.97;;;13.94;47.98
77250;BME280;66287;42.658;27.568;2023-02-22T05:33:14;99943.22;;;14.21;47.71
77250;BME280;66287;42.658;27.568;2023-02-22T05:35:40;99947.03;;;14.50;47.41
77250;BME280;66287;42.658;27.568;2023-02-22T05:38:05;99948.81;;;14.79;47.25
77250;BME280;66287;42.658;27.568;2023-02-22T05:40:31;99949.78;;;15.08;47.89
77250;BME280;66287;42.658;27.568;2023-02-22T05:42:57;99956.72;;;15.39;47.58
77250;BME280;66287;42.658;27.568;2023-02-22T05:45:24;99951.13;;;15.69;47.93
77250;BME280;66287;42.658;27.568;2023-02-22T05:47:50;99963.22;;;16.02;46.71
77250;BME280;66287;42.658;27.568;2023-02-22T05:50:16;99964.88;;;16.31;46.07
77250;BME280;66287;42.658;27.568;2023-02-22T05:52:42;99966.72;;;16.59;45.47
77250;BME280;66287;42.658;27.568;2023-02-22T05:55:08;99977.13;;;16.91;44.82
77250;BME280;66287;42.658;27.568;2023-02-22T05:57:33;99968.84;;;17.24;44.41
77250;BME280;66287;42.658;27.568;2023-02-22T05:59:59;99965.47;;;17.55;43.65
77250;BME280;66287;42.658;27.568;2023-02-22T06:02:24;99969.75;;;17.90;42.97
77250;BME280;66287;42.658;27.568;2023-02-22T06:04:50;99973.97;;;18.24;42.31
77250;BME280;66287;42.658;27.568;2023-02-22T06:07:15;99978.41;;;18.57;41.73
77250;BME280;66287;42.658;27.568;2023-02-22T06:09:40;99976.50;;;18.90;40.55
77250;BME280;66287;42.658;27.568;2023-02-22T06:12:06;99976.69;;;19.20;38.81
77250;BME280;66287;42.658;27.568;2023-02-22T06:14:31;99980.16;;;19.48;37.56
77250;BME280;66287;42.658;27.568;2023-02-22T06:16:57;99981.72;;;19.76;36.86
77250;BME280;66287;42.658;27.568;2023-02-22T06:19:23;99986.19;;;20.02;36.31
77250;BME280;66287;42.658;27.568;2023-02-22T06:21:55;99984.66;;;20.32;35.16
77250;BME280;66287;42.658;27.568;2023-02-22T06:24:21;99991.03;;;20.68;34.75
77250;BME280;66287;42.658;27.568;2023-02-22T06:26:53;99993.53;;;21.10;34.25
77250;BME280;66287;42.658;27.568;2023-02-22T06:29:19;99993.47;;;21.50;31.08
77250;BME280;66287;42.658;27.568;2023-02-22T06:31:44;99990.13;;;21.58;30.05
77250;BME280;66287;42.658;27.568;2023-02-22T06:34:09;99998.97;;;21.55;30.85
77250;BME280;66287;42.658;27.568;2023-02-22T06:36:37;99992.59;;;21.60;30.02
77250;BME280;66287;42.658;27.568;2023-02-22T06:39:02;99998.09;;;21.70;30.16
77250;BME280;66287;42.658;27.568;2023-02-22T06:41:27;99999.94;;;21.95;28.42
77250;BME280;66287;42.658;27.568;2023-02-22T06:43:53;99997.50;;;21.83;28.70
77250;BME280;66287;42.658;27.568;2023-02-22T06:46:18;100003.22;;;22.02;28.32
77250;BME280;66287;42.658;27.568;2023-02-22T06:48:45;100003.75;;;22.14;27.66
77250;BME280;66287;42.658;27.568;2023-02-22T06:51:10;100007.34;;;22.10;28.04
77250;BME280;66287;42.658;27.568;2023-02-22T06:53:36;99999.16;;;22.39;28.04
77250;BME280;66287;42.658;27.568;2023-02-22T06:56:04;99994.22;;;22.36;27.32
77250;BME280;66287;42.658;27.568;2023-02-22T06:58:29;99991.22;;;22.71;26.73
77250;BME280;66287;42.658;27.568;2023-02-22T07:00:55;99984.22;;;23.18;26.19
77250;BME280;66287;42.658;27.568;2023-02-22T07:03:20;99990.47;;;23.28;26.37
77250;BME280;66287;42.658;27.568;2023-02-22T07:05:45;99987.47;;;23.49;26.55
77250;BME280;66287;42.658;27.568;2023-02-22T07:08:11;99997.13;;;23.56;26.30
77250;BME280;66287;42.658;27.568;2023-02-22T07:10:37;99989.69;;;23.52;25.85
77250;BME280;66287;42.658;27.568;2023-02-22T07:13:03;99987.16;;;22.97;26.18
77250;BME280;66287;42.658;27.568;2023-02-22T07:15:30;99991.50;;;23.03;27.00
77250;BME280;66287;42.658;27.568;2023-02-22T07:17:56;99992.44;;;23.23;26.61
77250;BME280;66287;42.658;27.568;2023-02-22T07:20:22;99997.06;;;23.32;26.84
77250;BME280;66287;42.658;27.568;2023-02-22T07:22:48;99988.63;;;23.72;25.83
77250;BME280;66287;42.658;27.568;2023-02-22T07:25:14;99987.94;;;24.27;25.36
77250;BME280;66287;42.658;27.568;2023-02-22T07:27:40;99982.75;;;24.77;25.03
77250;BME280;66287;42.658;27.568;2023-02-22T07:30:07;99982.97;;;24.43;24.52
77250;BME280;66287;42.658;27.568;2023-02-22T07:32:32;99978.13;;;24.35;25.05
77250;BME280;66287;42.658;27.568;2023-02-22T07:34:58;99982.97;;;24.43;24.85
77250;BME280;66287;42.658;27.568;2023-02-22T07:37:24;99983.03;;;24.76;24.06
77250;BME280;66287;42.658;27.568;2023-02-22T07:39:53;99986.50;;;24.30;24.01
77250;BME280;66287;42.658;27.568;2023-02-22T07:42:19;99981.13;;;23.96;25.30
77250;BME280;66287;42.658;27.568;2023-02-22T07:44:48;99974.78;;;24.14;25.93
77250;BME280;66287;42.658;27.568;2023-02-22T07:47:14;99981.63;;;24.41;25.51
77250;BME280;66287;42.658;27.568;2023-02-22T07:49:39;99972.66;;;24.49;24.92
77250;BME280;66287;42.658;27.568;2023-02-22T07:52:04;99979.78;;;24.36;25.59
77250;BME280;66287;42.658;27.568;2023-02-22T07:54:31;99973.91;;;24.75;24.34
77250;BME280;66287;42.658;27.568;2023-02-22T07:56:57;99977.97;;;25.15;24.30
77250;BME280;66287;42.658;27.568;2023-02-22T07:59:22;99973.56;;;25.41;23.98
77250;BME280;66287;42.658;27.568;2023-02-22T08:01:48;99975.13;;;26.02;23.17
77250;BME280;66287;42.658;27.568;2023-02-22T08:04:14;99973.28;;;25.98;22.93
77250;BME280;66287;42.658;27.568;2023-02-22T08:06:39;99965.66;;;26.17;22.83
77250;BME280;66287;42.658;27.568;2023-02-22T08:09:05;99971.47;;;26.43;22.26
77250;BME280;66287;42.658;27.568;2023-02-22T08:11:30;99965.72;;;26.84;21.82
77250;BME280;66287;42.658;27.568;2023-02-22T08:13:56;99968.31;;;26.81;22.51
77250;BME280;66287;42.658;27.568;2023-02-22T08:16:24;99957.25;;;26.67;22.55
77250;BME280;66287;42.658;27.568;2023-02-22T08:18:49;99967.75;;;26.70;22.31
77250;BME280;66287;42.658;27.568;2023-02-22T08:21:15;99964.97;;;26.70;21.41
77250;BME280;66287;42.658;27.568;2023-02-22T08:23:41;99960.13;;;26.75;22.70
77250;BME280;66287;42.658;27.568;2023-02-22T08:26:07;99962.91;;;26.98;21.49
77250;BME280;66287;42.658;27.568;2023-02-22T08:28:33;99956.56;;;27.06;22.00
77250;BME280;66287;42.658;27.568;2023-02-22T08:30:58;99949.06;;;27.06;21.59
77250;BME280;66287;42.658;27.568;2023-02-22T08:33:24;99950.81;;;27.02;22.13
77250;BME280;66287;42.658;27.568;2023-02-22T08:35:49;99944.75;;;27.00;21.48
77250;BME280;66287;42.658;27.568;2023-02-22T08:38:36;99947.84;;;26.99;22.38
77250;BME280;66287;42.658;27.568;2023-02-22T08:41:01;99956.53;;;26.97;21.46
77250;BME280;66287;42.658;27.568;2023-02-22T08:43:27;99940.34;;;26.77;21.95
77250;BME280;66287;42.658;27.568;2023-02-22T08:45:55;99957.66;;;26.74;21.65
77250;BME280;66287;42.658;27.568;2023-02-22T08:48:21;99957.47;;;26.70;22.22
77250;BME280;66287;42.658;27.568;2023-02-22T08:50:46;99948.91;;;26.89;21.83
77250;BME280;66287;42.658;27.568;2023-02-22T08:53:12;99953.03;;;27.14;21.13
77250;BME280;66287;42.658;27.568;2023-02-22T08:55:41;99950.84;;;27.42;20.82
77250;BME280;66287;42.658;27.568;2023-02-22T08:58:06;99961.69;;;27.43;21.67
77250;BME280;66287;42.658;27.568;2023-02-22T09:00:36;99955.16;;;27.48;21.42
77250;BME280;66287;42.658;27.568;2023-02-22T09:03:03;99959.06;;;27.47;20.17
77250;BME280;66287;42.658;27.568;2023-02-22T09:05:29;99954.50;;;27.51;20.73
77250;BME280;66287;42.658;27.568;2023-02-22T09:07:54;99954.59;;;27.68;20.94
77250;BME280;66287;42.658;27.568;2023-02-22T09:10:21;99952.22;;;28.01;20.13
77250;BME280;66287;42.658;27.568;2023-02-22T09:12:50;99951.50;;;28.35;19.97
77250;BME280;66287;42.658;27.568;2023-02-22T09:15:19;99951.16;;;28.71;19.83
77250;BME280;66287;42.658;27.568;2023-02-22T09:17:44;99946.22;;;28.94;19.67
77250;BME280;66287;42.658;27.568;2023-02-22T09:20:09;99965.72;;;29.03;19.45
77250;BME280;66287;42.658;27.568;2023-02-22T09:22:36;99951.47;;;28.87;19.46
77250;BME280;66287;42.658;27.568;2023-02-22T09:25:02;99953.28;;;28.74;19.25
77250;BME280;66287;42.658;27.568;2023-02-22T09:27:28;99954.84;;;29.19;19.61
77250;BME280;66287;42.658;27.568;2023-02-22T09:29:53;99937.72;;;29.37;18.96
77250;BME280;66287;42.658;27.568;2023-02-22T09:32:22;99941.31;;;29.38;18.75
77250;BME280;66287;42.658;27.568;2023-02-22T09:34:51;99952.94;;;29.57;18.91
77250;BME280;66287;42.658;27.568;2023-02-22T09:37:16;99952.53;;;30.26;18.79
77250;BME280;66287;42.658;27.568;2023-02-22T09:39:42;99958.22;;;30.59;18.27
77250;BME280;66287;42.658;27.568;2023-02-22T09:42:16;99944.81;;;30.86;16.80
77250;BME280;66287;42.658;27.568;2023-02-22T09:47:31;99940.28;;;31.26;16.96
77250;BME280;66287;42.658;27.568;2023-02-22T09:50:03;99949.25;;;31.20;17.43
77250;BME280;66287;42.658;27.568;2023-02-22T09:52:32;99948.00;;;30.96;17.39
77250;BME280;66287;42.658;27.568;2023-02-22T09:55:07;99936.81;;;31.08;16.99
77250;BME280;66287;42.658;27.568;2023-02-22T09:57:36;99944.56;;;31.11;16.00
77250;BME280;66287;42.658;27.568;2023-02-22T10:00:05;99943.56;;;31.28;16.65
77250;BME280;66287;42.658;27.568;2023-02-22T10:02:37;99943.75;;;31.23;16.45
77250;BME280;66287;42.658;27.568;2023-02-22T10:05:07;99938.19;;;31.35;16.18
77250;BME280;66287;42.658;27.568;2023-02-22T10:07:38;99927.47;;;31.49;16.05
77250;BME280;66287;42.658;27.568;2023-02-22T10:10:05;99932.13;;;31.45;16.98
77250;BME280;66287;42.658;27.568;2023-02-22T10:12:46;99927.72;;;31.81;16.35
77250;BME280;66287;42.658;27.568;2023-02-22T10:18:02;99925.41;;;31.71;16.08
77250;BME280;66287;42.658;27.568;2023-02-22T10:25:29;99925.28;;;32.44;15.94
77250;BME280;66287;42.658;27.568;2023-02-22T10:28:00;99920.09;;;32.06;15.68
77250;BME280;66287;42.658;27.568;2023-02-22T10:30:31;99921.84;;;32.10;15.57
77250;BME280;66287;42.658;27.568;2023-02-22T10:33:00;99925.00;;;32.21;15.62
77250;BME280;66287;42.658;27.568;2023-02-22T10:35:32;99909.84;;;32.38;15.06
77250;BME280;66287;42.658;27.568;2023-02-22T10:38:01;99912.03;;;32.57;15.03
77250;BME280;66287;42.658;27.568;2023-02-22T10:40:31;99908.06;;;32.85;15.31
77250;BME280;66287;42.658;27.568;2023-02-22T10:42:57;99916.03;;;32.99;15.26
77250;BME280;66287;42.658;27.568;2023-02-22T10:45:27;99913.25;;;32.43;16.43
77250;BME280;66287;42.658;27.568;2023-02-22T10:47:54;99912.53;;;31.33;17.37
77250;BME280;66287;42.658;27.568;2023-02-22T10:50:23;99923.47;;;30.60;17.37
77250;BME280;66287;42.658;27.568;2023-02-22T10:52:49;99910.94;;;29.74;17.78
77250;BME280;66287;42.658;27.568;2023-02-22T10:55:15;99907.75;;;29.17;18.79
77250;BME280;66287;42.658;27.568;2023-02-22T10:57:41;99906.34;;;28.68;19.36
77250;BME280;66287;42.658;27.568;2023-02-22T11:02:53;99902.00;;;29.13;18.66
77250;BME280;66287;42.658;27.568;2023-02-22T11:08:12;99906.22;;;28.56;19.46
77250;BME280;66287;42.658;27.568;2023-02-22T11:10:39;99898.47;;;28.61;19.76
77250;BME280;66287;42.658;27.568;2023-02-22T11:13:18;99902.72;;;28.85;19.05
77250;BME280;66287;42.658;27.568;2023-02-22T11:15:47;99897.97;;;28.76;19.29
77250;BME280;66287;42.658;27.568;2023-02-22T11:18:21;99892.41;;;28.76;19.62
77250;BME280;66287;42.658;27.568;2023-02-22T11:20:48;99895.84;;;28.91;19.11
77250;BME280;66287;42.658;27.568;2023-02-22T11:23:13;99888.06;;;29.13;18.59
77250;BME280;66287;42.658;27.568;2023-02-22T11:25:47;99895.13;;;29.02;18.91
77250;BME280;66287;42.658;27.568;2023-02-22T11:28:17;99888.34;;;28.31;19.64
77250;BME280;66287;42.658;27.568;2023-02-22T11:30:45;99898.31;;;28.75;19.07
77250;BME280;66287;42.658;27.568;2023-02-22T11:38:15;99889.88;;;30.06;18.98
77250;BME280;66287;42.658;27.568;2023-02-22T11:40:42;99897.13;;;30.40;17.87
77250;BME280;66287;42.658;27.568;2023-02-22T11:43:08;99894.44;;;30.32;17.50
77250;BME280;66287;42.658;27.568;2023-02-22T11:45:36;99897.63;;;30.22;17.61
77250;BME280;66287;42.658;27.568;2023-02-22T11:48:02;99897.97;;;28.94;18.79
77250;BME280;66287;42.658;27.568;2023-02-22T11:55:33;99897.03;;;30.16;18.58
77250;BME280;66287;42.658;27.568;2023-02-22T12:08:14;99896.41;;;30.85;17.42
77250;BME280;66287;42.658;27.568;2023-02-22T12:18:23;99879.97;;;28.39;20.14
77250;BME280;66287;42.658;27.568;2023-02-22T12:20:55;99882.63;;;27.53;21.17
77250;BME280;66287;42.658;27.568;2023-02-22T12:28:33;99878.41;;;25.55;23.60
77250;BME280;66287;42.658;27.568;2023-02-22T12:33:26;99880.50;;;24.89;23.49
77250;BME280;66287;42.658;27.568;2023-02-22T12:35:54;99883.03;;;24.72;23.86
77250;BME280;66287;42.658;27.568;2023-02-22T12:38:36;99889.84;;;24.47;25.10
77250;BME280;66287;42.658;27.568;2023-02-22T12:43:46;99885.78;;;24.21;24.94
77250;BME280;66287;42.658;27.568;2023-02-22T12:46:20;99893.13;;;23.74;25.07
77250;BME280;66287;42.658;27.568;2023-02-22T12:48:56;99891.16;;;23.56;25.96
77250;BME280;66287;42.658;27.568;2023-02-22T12:56:52;99892.63;;;24.28;24.98
77250;BME280;66287;42.658;27.568;2023-02-22T12:59:21;99890.31;;;24.35;25.21
77250;BME280;66287;42.658;27.568;2023-02-22T13:01:55;99893.56;;;24.19;25.05
77250;BME280;66287;42.658;27.568;2023-02-22T13:04:22;99899.72;;;23.97;26.27
77250;BME280;66287;42.658;27.568;2023-02-22T13:22:05;99908.13;;;24.62;25.72
77250;BME280;66287;42.658;27.568;2023-02-22T13:27:25;99918.88;;;24.82;25.31
77250;BME280;66287;42.658;27.568;2023-02-22T13:29:58;99908.31;;;25.17;24.28
77250;BME280;66287;42.658;27.568;2023-02-22T13:47:39;99928.56;;;25.31;24.99
77250;BME280;66287;42.658;27.568;2023-02-22T13:52:52;99920.53;;;25.16;25.00
77250;BME280;66287;42.658;27.568;2023-02-22T13:55:23;99925.69;;;24.38;26.43
77250;BME280;66287;42.658;27.568;2023-02-22T13:57:58;99933.69;;;24.02;26.82
77250;BME280;66287;42.658;27.568;2023-02-22T14:00:38;99933.94;;;24.25;26.48
77250;BME280;66287;42.658;27.568;2023-02-22T14:10:53;99942.22;;;22.48;29.28
77250;BME280;66287;42.658;27.568;2023-02-22T14:13:22;99951.03;;;22.50;29.39
77250;BME280;66287;42.658;27.568;2023-02-22T14:18:29;99936.97;;;22.85;29.25
77250;BME280;66287;42.658;27.568;2023-02-22T14:23:50;99958.44;;;23.22;28.71
77250;BME280;66287;42.658;27.568;2023-02-22T14:26:19;99952.78;;;23.09;28.65
77250;BME280;66287;42.658;27.568;2023-02-22T14:29:13;99951.75;;;23.28;28.54
77250;BME280;66287;42.658;27.568;2023-02-22T14:34:13;99956.53;;;23.94;28.11
77250;BME280;66287;42.658;27.568;2023-02-22T14:39:41;99967.38;;;22.46;29.73
77250;BME280;66287;42.658;27.568;2023-02-22T14:47:15;99954.56;;;23.23;29.26
77250;BME280;66287;42.658;27.568;2023-02-22T14:49:45;99962.09;;;23.42;28.80
77250;BME280;66287;42.658;27.568;2023-02-22T14:55:17;99977.94;;;23.36;28.98
77250;BME280;66287;42.658;27.568;2023-02-22T14:57:48;99975.72;;;23.38;29.03
77250;BME280;66287;42.658;27.568;2023-02-22T15:00:19;99984.69;;;23.25;28.97
77250;BME280;66287;42.658;27.568;2023-02-22T15:02:47;99988.84;;;23.22;28.82
77250;BME280;66287;42.658;27.568;2023-02-22T15:05:13;99989.88;;;23.02;29.46
77250;BME280;66287;42.658;27.568;2023-02-22T15:07:47;99995.81;;;22.86;29.34
77250;BME280;66287;42.658;27.568;2023-02-22T15:12:41;99995.91;;;22.71;29.69
77250;BME280;66287;42.658;27.568;2023-02-22T15:15:19;100005.97;;;22.56;30.07
77250;BME280;66287;42.658;27.568;2023-02-22T15:17:54;100011.56;;;22.46;30.00
77250;BME280;66287;42.658;27.568;2023-02-22T15:20:20;100016.53;;;22.44;30.15
77250;BME280;66287;42.658;27.568;2023-02-22T15:22:49;100021.56;;;22.37;30.40
77250;BME280;66287;42.658;27.568;2023-02-22T15:25:14;100022.97;;;22.29;30.62
77250;BME280;66287;42.658;27.568;2023-02-22T15:27:41;100017.31;;;21.95;31.59
77250;BME280;66287;42.658;27.568;2023-02-22T15:32:40;100022.16;;;21.54;32.14
77250;BME280;66287;42.658;27.568;2023-02-22T15:37:57;100035.69;;;21.15;32.35
77250;BME280;66287;42.658;27.568;2023-02-22T15:40:23;100031.25;;;21.19;32.15
77250;BME280;66287;42.658;27.568;2023-02-22T15:42:52;100033.22;;;21.24;31.54
77250;BME280;66287;42.658;27.568;2023-02-22T15:45:19;100037.06;;;21.23;31.70
77250;BME280;66287;42.658;27.568;2023-02-22T15:47:46;100038.44;;;21.20;31.56